createdAt,value
2024-04-07T00:00:32.200Z,3.50
2024-04-07T00:03:20.433Z,3.00
2024-04-07T00:05:57.294Z,3.60
2024-04-07T00:08:25.800Z,3.60
2024-04-07T00:10:54.138Z,3.50
2024-04-07T00:13:22.454Z,3.00
2024-04-07T00:15:50.734Z,3.20
2024-04-07T00:18:20.028Z,3.60
2024-04-07T00:20:48.922Z,3.40
2024-04-07T00:23:17.405Z,3.50
2024-04-07T00:25:45.515Z,4.50
2024-04-07T00:28:14.145Z,5.90
2024-04-07T00:30:45.203Z,4.20
2024-04-07T00:33:13.679Z,3.80
2024-04-07T00:35:42.365Z,3.40
2024-04-07T00:38:10.468Z,3.40
2024-04-07T00:40:38.863Z,2.90
2024-04-07T00:43:07.804Z,2.70
2024-04-07T00:45:37.025Z,2.40
2024-04-07T00:48:07.295Z,3.10
2024-04-07T00:50:36.835Z,3.00
2024-04-07T00:55:34.928Z,3.50
2024-04-07T00:58:03.720Z,2.70
2024-04-07T01:00:33.218Z,3.50
2024-04-07T01:03:01.501Z,3.90
2024-04-07T01:05:40.211Z,3.60
2024-04-07T01:08:09.660Z,3.80
2024-04-07T01:10:38.266Z,4.20
2024-04-07T01:13:08.421Z,3.60
2024-04-07T01:15:37.827Z,3.60
2024-04-07T01:18:06.100Z,3.70
2024-04-07T01:20:35.686Z,3.80
2024-04-07T01:23:04.716Z,3.90
2024-04-07T01:25:33.301Z,3.70
2024-04-07T01:28:02.202Z,5.10
2024-04-07T01:30:32.881Z,5.00
2024-04-07T01:33:01.108Z,4.10
2024-04-07T01:35:30.070Z,3.40
2024-04-07T01:37:59.372Z,3.50
2024-04-07T01:40:27.759Z,3.40
2024-04-07T01:42:56.036Z,3.30
2024-04-07T01:45:24.205Z,3.40
2024-04-07T01:47:52.689Z,3.60
2024-04-07T01:50:21.166Z,4.90
2024-04-07T01:52:49.873Z,5.20
2024-04-07T01:55:18.028Z,5.30
2024-04-07T01:57:46.412Z,5.10
2024-04-07T02:00:14.987Z,4.60
2024-04-07T02:02:43.875Z,4.80
2024-04-07T02:05:12.049Z,4.60
2024-04-07T02:07:40.396Z,4.60
2024-04-07T02:10:10.110Z,5.10
2024-04-07T02:12:39.055Z,4.90
2024-04-07T02:15:07.751Z,5.10
2024-04-07T02:17:36.914Z,5.30
2024-04-07T02:20:09.632Z,4.40
2024-04-07T02:22:37.810Z,5.10
2024-04-07T02:25:06.562Z,5.20
2024-04-07T02:27:36.675Z,5.90
2024-04-07T02:30:05.878Z,4.90
2024-04-07T02:32:34.337Z,4.70
2024-04-07T02:35:05.199Z,4.60
2024-04-07T02:37:33.370Z,4.30
2024-04-07T02:40:01.852Z,3.90
2024-04-07T02:42:30.959Z,4.20
2024-04-07T02:45:17.765Z,3.90
2024-04-07T02:48:04.541Z,5.10
2024-04-07T02:50:34.207Z,4.90
2024-04-07T02:53:02.845Z,4.90
2024-04-07T02:55:30.983Z,4.30
2024-04-07T02:57:59.359Z,4.80
2024-04-07T03:00:27.895Z,4.70
2024-04-07T03:02:55.947Z,4.10
2024-04-07T03:05:24.104Z,4.90
2024-04-07T03:07:52.313Z,4.90
2024-04-07T03:10:20.451Z,4.60
2024-04-07T03:12:48.972Z,4.30
2024-04-07T03:15:17.471Z,4.90
2024-04-07T03:17:45.616Z,4.40
2024-04-07T03:20:14.113Z,4.00
2024-04-07T03:22:42.377Z,4.90
2024-04-07T03:25:10.552Z,4.00
2024-04-07T03:27:39.647Z,4.80
2024-04-07T03:30:08.534Z,4.00
2024-04-07T03:32:36.661Z,4.30
2024-04-07T03:35:04.977Z,3.90
2024-04-07T03:37:33.172Z,3.90
2024-04-07T03:40:01.144Z,4.10
2024-04-07T03:42:30.175Z,3.90
2024-04-07T03:44:59.598Z,13.80
2024-04-07T03:47:27.921Z,9.30
2024-04-07T03:49:57.000Z,5.40
2024-04-07T03:52:25.313Z,4.80
2024-04-07T03:54:53.562Z,7.10
2024-04-07T03:57:22.347Z,4.00
2024-04-07T03:59:50.724Z,3.50
2024-04-07T04:02:25.864Z,6.60
2024-04-07T04:05:00.939Z,6.40
2024-04-07T04:07:31.468Z,5.30
2024-04-07T04:10:00.818Z,5.00
2024-04-07T04:12:30.028Z,5.70
2024-04-07T04:14:58.920Z,3.30
2024-04-07T04:17:27.167Z,4.10
2024-04-07T04:19:55.620Z,3.40
2024-04-07T04:22:24.352Z,4.30
2024-04-07T04:24:52.883Z,3.80
2024-04-07T04:27:21.107Z,3.40
2024-04-07T04:29:52.771Z,2.80
2024-04-07T04:32:21.841Z,3.20
2024-04-07T04:34:50.067Z,3.20
2024-04-07T04:37:19.338Z,3.00
2024-04-07T04:39:47.919Z,2.90
2024-04-07T04:42:16.095Z,3.50
2024-04-07T04:44:44.683Z,3.70
2024-04-07T04:47:13.362Z,3.60
2024-04-07T04:49:41.546Z,4.30
2024-04-07T04:52:09.843Z,4.00
2024-04-07T04:54:38.302Z,3.50
2024-04-07T04:57:06.572Z,4.50
2024-04-07T04:59:34.744Z,2.60
2024-04-07T05:02:03.173Z,2.50
2024-04-07T05:04:32.190Z,2.20
2024-04-07T05:07:00.350Z,2.30
2024-04-07T05:09:28.367Z,2.80
2024-04-07T05:11:56.718Z,2.40
2024-04-07T05:14:25.129Z,2.40
2024-04-07T05:16:53.512Z,2.50
2024-04-07T05:19:21.986Z,2.20
2024-04-07T05:21:50.769Z,2.20
2024-04-07T05:24:19.125Z,1.40
2024-04-07T05:26:47.220Z,2.00
2024-04-07T05:29:15.435Z,1.70
2024-04-07T05:31:45.444Z,1.50
2024-04-07T05:34:13.547Z,1.60
2024-04-07T05:36:41.867Z,1.30
2024-04-07T05:39:10.150Z,1.40
2024-04-07T05:41:38.173Z,1.50
2024-04-07T05:44:06.848Z,1.40
2024-04-07T05:46:34.862Z,1.20
2024-04-07T05:49:03.002Z,1.40
2024-04-07T05:51:31.098Z,1.50
2024-04-07T05:53:59.550Z,1.80
2024-04-07T05:56:27.990Z,1.90
2024-04-07T05:58:56.381Z,1.30
2024-04-07T06:01:24.700Z,1.40
2024-04-07T06:03:54.346Z,1.50
2024-04-07T06:06:22.578Z,1.40
2024-04-07T06:08:50.853Z,1.50
2024-04-07T06:11:20.293Z,1.30
2024-04-07T06:13:48.882Z,1.60
2024-04-07T06:16:17.389Z,1.40
2024-04-07T06:18:48.084Z,1.40
2024-04-07T06:21:17.634Z,1.50
2024-04-07T06:23:45.909Z,1.60
2024-04-07T06:26:14.018Z,1.50
2024-04-07T06:28:42.652Z,1.10
2024-04-07T06:31:11.001Z,1.20
2024-04-07T06:33:39.508Z,1.50
2024-04-07T06:36:08.385Z,1.40
2024-04-07T06:38:36.751Z,1.90
2024-04-07T06:41:05.536Z,1.80
2024-04-07T06:43:36.892Z,1.70
2024-04-07T06:46:05.261Z,1.80
2024-04-07T06:48:33.330Z,1.80
2024-04-07T06:51:01.447Z,1.80
2024-04-07T06:53:29.585Z,2.20
2024-04-07T06:55:58.231Z,2.00
2024-04-07T06:58:27.058Z,2.20
2024-04-07T07:00:55.439Z,2.40
2024-04-07T07:03:24.145Z,2.00
2024-04-07T07:05:52.701Z,2.10
2024-04-07T07:08:21.290Z,2.00
2024-04-07T07:11:03.040Z,2.10
2024-04-07T07:13:34.082Z,1.60
2024-04-07T07:16:02.557Z,1.90
2024-04-07T07:18:30.798Z,2.10
2024-04-07T07:20:58.900Z,2.10
2024-04-07T07:23:27.735Z,2.50
2024-04-07T07:28:24.802Z,2.00
2024-04-07T07:30:53.076Z,2.60
2024-04-07T07:33:21.343Z,2.60
2024-04-07T07:35:53.548Z,2.40
2024-04-07T07:38:22.108Z,2.70
2024-04-07T07:40:50.377Z,2.70
2024-04-07T07:43:18.557Z,2.40
2024-04-07T07:45:48.155Z,2.60
2024-04-07T07:48:16.330Z,2.50
2024-04-07T07:50:45.020Z,2.50
2024-04-07T07:53:13.241Z,2.70
2024-04-07T07:55:41.571Z,2.70
2024-04-07T07:58:10.249Z,2.30
2024-04-07T08:00:38.632Z,2.70
2024-04-07T08:03:10.420Z,2.80
2024-04-07T08:05:40.418Z,3.40
2024-04-07T08:08:08.540Z,3.30
2024-04-07T08:10:36.574Z,2.70
2024-04-07T08:13:04.948Z,2.80
2024-04-07T08:15:33.076Z,2.70
2024-04-07T08:18:01.636Z,2.60
2024-04-07T08:20:29.868Z,3.10
2024-04-07T08:22:58.285Z,2.90
2024-04-07T08:25:27.533Z,3.00
2024-04-07T08:27:59.106Z,3.40
2024-04-07T08:30:27.779Z,2.60
2024-04-07T08:32:57.076Z,3.20
2024-04-07T08:35:25.461Z,2.90
2024-04-07T08:37:54.919Z,3.40
2024-04-07T08:42:53.356Z,2.90
2024-04-07T08:45:22.646Z,2.90
2024-04-07T08:50:19.461Z,2.90
2024-04-07T08:52:47.998Z,2.90
2024-04-07T08:55:16.465Z,3.00
2024-04-07T08:57:45.980Z,2.50
2024-04-07T09:00:17.212Z,2.70
2024-04-07T09:02:46.519Z,2.40
2024-04-07T09:07:43.089Z,2.40
2024-04-07T09:10:11.266Z,2.30
2024-04-07T09:12:39.840Z,2.10
2024-04-07T09:15:12.205Z,2.70
2024-04-07T09:17:40.695Z,2.60
2024-04-07T09:20:26.782Z,2.10
2024-04-07T09:22:55.185Z,2.20
2024-04-07T09:25:24.090Z,2.50
2024-04-07T09:27:52.533Z,2.40
2024-04-07T09:30:20.903Z,2.50
2024-04-07T09:32:50.483Z,2.70
2024-04-07T09:35:19.009Z,2.80
2024-04-07T09:37:47.168Z,2.70
2024-04-07T09:40:15.342Z,2.60
2024-04-07T09:42:45.787Z,3.10
2024-04-07T09:45:14.257Z,2.70
2024-04-07T09:47:48.984Z,2.60
2024-04-07T09:50:32.830Z,2.80
2024-04-07T09:53:08.463Z,2.60
2024-04-07T09:58:08.002Z,2.40
2024-04-07T10:00:37.396Z,2.40
2024-04-07T10:03:06.492Z,2.90
2024-04-07T10:05:34.764Z,2.80
2024-04-07T10:08:04.159Z,2.00
2024-04-07T10:10:32.748Z,2.00
2024-04-07T10:13:11.528Z,2.50
2024-04-07T10:15:39.751Z,2.20
2024-04-07T10:18:13.513Z,2.30
2024-04-07T10:20:41.828Z,2.40
2024-04-07T10:23:14.222Z,2.00
2024-04-07T10:25:50.156Z,2.50
2024-04-07T10:28:18.437Z,2.30
2024-04-07T10:30:59.999Z,2.50
2024-04-07T10:33:31.615Z,2.80
2024-04-07T10:36:10.190Z,2.70
2024-04-07T10:38:57.932Z,2.20
2024-04-07T10:44:00.074Z,2.30
2024-04-07T10:46:30.746Z,2.10
2024-04-07T10:49:01.117Z,2.00
2024-04-07T10:51:29.647Z,1.80
2024-04-07T10:54:07.683Z,2.50
2024-04-07T10:56:36.126Z,2.00
2024-04-07T10:59:04.418Z,1.80
2024-04-07T11:01:33.708Z,1.70
2024-04-07T11:04:02.457Z,1.90
2024-04-07T11:06:31.189Z,1.70
2024-04-07T11:08:59.772Z,1.80
2024-04-07T11:11:27.835Z,1.80
2024-04-07T11:13:59.569Z,1.50
2024-04-07T11:16:27.981Z,1.90
2024-04-07T11:18:58.982Z,2.40
2024-04-07T11:21:28.724Z,2.10
2024-04-07T11:23:56.897Z,4.50
2024-04-07T11:26:29.480Z,2.30
2024-04-07T11:28:59.898Z,3.10
2024-04-07T11:31:29.302Z,2.50
2024-04-07T11:33:59.662Z,2.90
2024-04-07T11:36:28.619Z,1.50
2024-04-07T11:41:25.071Z,1.60
2024-04-07T11:43:55.313Z,1.80
2024-04-07T11:46:23.739Z,1.50
2024-04-07T11:48:52.169Z,1.80
2024-04-07T11:51:20.460Z,1.50
2024-04-07T11:53:49.525Z,1.80
2024-04-07T11:56:19.355Z,1.60
2024-04-07T11:58:47.610Z,1.40
2024-04-07T12:01:18.246Z,1.90
2024-04-07T12:03:47.025Z,1.80
2024-04-07T12:06:16.745Z,1.80
2024-04-07T12:08:44.927Z,2.10
2024-04-07T12:11:15.749Z,2.10
2024-04-07T12:13:44.543Z,2.50
2024-04-07T12:16:13.329Z,2.40
2024-04-07T12:18:41.502Z,2.60
2024-04-07T12:21:10.189Z,2.50
2024-04-07T12:23:38.671Z,2.80
2024-04-07T12:26:08.620Z,2.90
2024-04-07T12:28:36.853Z,2.70
2024-04-07T12:31:05.233Z,2.70
2024-04-07T12:33:33.967Z,3.30
2024-04-07T12:36:03.162Z,3.70
2024-04-07T12:38:31.749Z,3.20
2024-04-07T12:40:59.877Z,3.70
2024-04-07T12:43:28.071Z,2.90
2024-04-07T12:45:56.622Z,2.80
2024-04-07T12:48:26.856Z,2.40
2024-04-07T12:50:57.175Z,2.30
2024-04-07T12:53:25.466Z,2.60
2024-04-07T12:55:54.141Z,2.20
2024-04-07T12:58:22.409Z,2.50
2024-04-07T13:00:50.788Z,3.30
2024-04-07T13:03:20.815Z,3.20
2024-04-07T13:05:49.589Z,3.60
2024-04-07T13:08:18.697Z,3.60
2024-04-07T13:10:47.123Z,3.80
2024-04-07T13:13:17.898Z,4.70
2024-04-07T13:15:56.339Z,4.10
2024-04-07T13:18:25.550Z,4.00
2024-04-07T13:20:54.301Z,4.30
2024-04-07T13:23:22.793Z,4.30
2024-04-07T13:25:51.056Z,4.40
2024-04-07T13:28:19.620Z,3.70
2024-04-07T13:30:48.330Z,3.50
2024-04-07T13:33:17.435Z,3.60
2024-04-07T13:38:14.588Z,3.40
2024-04-07T13:40:43.515Z,3.20
2024-04-07T13:43:12.195Z,3.30
2024-04-07T13:45:41.467Z,3.20
2024-04-07T13:48:09.650Z,3.30
2024-04-07T13:50:38.131Z,3.70
2024-04-07T13:53:07.953Z,3.60
2024-04-07T13:55:36.625Z,3.40
2024-04-07T13:58:05.310Z,3.10
2024-04-07T14:00:34.103Z,3.60
2024-04-07T14:03:02.574Z,3.10
2024-04-07T14:05:31.228Z,4.60
2024-04-07T14:08:01.703Z,3.20
2024-04-07T14:10:29.792Z,3.30
2024-04-07T14:12:58.133Z,3.10
2024-04-07T14:15:26.426Z,3.40
2024-04-07T14:17:54.686Z,3.00
2024-04-07T14:20:23.073Z,3.10
2024-04-07T14:22:51.444Z,3.10
2024-04-07T14:25:21.005Z,3.00
2024-04-07T14:27:49.479Z,3.20
2024-04-07T14:30:20.778Z,2.60
2024-04-07T14:32:50.185Z,4.10
2024-04-07T14:35:18.462Z,4.40
2024-04-07T14:37:48.064Z,4.50
2024-04-07T14:40:16.637Z,3.10
2024-04-07T14:42:44.917Z,3.40
2024-04-07T14:45:13.098Z,4.10
2024-04-07T14:47:41.280Z,3.90
2024-04-07T14:50:09.758Z,3.20
2024-04-07T14:52:38.451Z,2.80
2024-04-07T14:55:06.868Z,2.80
2024-04-07T14:57:35.706Z,2.40
2024-04-07T15:02:32.580Z,2.80
2024-04-07T15:05:01.251Z,2.50
2024-04-07T15:07:29.738Z,2.80
2024-04-07T15:10:01.700Z,2.20
2024-04-07T15:12:34.386Z,4.40
2024-04-07T15:15:03.609Z,2.20
2024-04-07T15:17:31.859Z,2.20
2024-04-07T15:20:00.165Z,2.60
2024-04-07T15:22:28.605Z,3.00
2024-04-07T15:24:57.293Z,3.30
2024-04-07T15:27:25.563Z,2.60
2024-04-07T15:29:59.079Z,3.40
2024-04-07T15:32:27.362Z,3.80
2024-04-07T15:34:55.616Z,3.40
2024-04-07T15:37:23.990Z,2.80
2024-04-07T15:39:53.097Z,5.60
2024-04-07T15:42:21.366Z,5.10
2024-04-07T15:44:50.052Z,4.20
2024-04-07T15:47:18.836Z,4.00
2024-04-07T15:49:47.229Z,4.40
2024-04-07T15:52:15.396Z,4.00
2024-04-07T15:54:44.368Z,3.30
2024-04-07T15:57:15.119Z,4.70
2024-04-07T15:59:43.508Z,4.30
2024-04-07T16:02:12.010Z,4.50
2024-04-07T16:04:40.152Z,4.40
2024-04-07T16:07:08.528Z,4.60
2024-04-07T16:09:36.601Z,5.10
2024-04-07T16:12:05.395Z,4.70
2024-04-07T16:14:34.286Z,4.70
2024-04-07T16:17:04.715Z,5.60
2024-04-07T16:19:33.609Z,5.70
2024-04-07T16:22:01.667Z,5.90
2024-04-07T16:24:29.726Z,6.50
2024-04-07T16:26:59.041Z,6.80
2024-04-07T16:29:27.834Z,8.70
2024-04-07T16:31:58.998Z,7.20
2024-04-07T16:34:30.906Z,7.20
2024-04-07T16:37:01.662Z,8.50
2024-04-07T16:39:31.384Z,9.90
2024-04-07T16:41:59.557Z,8.50
2024-04-07T16:44:29.885Z,6.60
2024-04-07T16:46:58.352Z,6.70
2024-04-07T16:49:26.579Z,7.80
2024-04-07T16:51:54.945Z,29.90
2024-04-07T16:54:23.588Z,18.20
2024-04-07T16:56:54.943Z,14.20
2024-04-07T16:59:23.492Z,13.20
2024-04-07T17:01:52.365Z,10.30
2024-04-07T17:04:20.591Z,10.40
2024-04-07T17:06:49.071Z,9.60
2024-04-07T17:09:20.185Z,9.00
2024-04-07T17:11:48.536Z,8.40
2024-04-07T17:14:16.900Z,8.50
2024-04-07T17:16:45.368Z,7.30
2024-04-07T17:19:13.981Z,8.70
2024-04-07T17:21:44.363Z,7.10
2024-04-07T17:24:12.752Z,7.40
2024-04-07T17:26:41.425Z,7.20
2024-04-07T17:29:09.923Z,7.40
2024-04-07T17:31:38.193Z,7.50
2024-04-07T17:34:06.694Z,7.50
2024-04-07T17:36:38.227Z,11.00
2024-04-07T17:39:06.909Z,36.80
2024-04-07T17:41:35.181Z,92.00
2024-04-07T17:44:03.574Z,130.40
2024-04-07T17:46:33.671Z,41.20
2024-04-07T17:49:01.851Z,31.80
2024-04-07T17:51:30.538Z,28.60
2024-04-07T17:53:58.924Z,21.00
2024-04-07T17:56:27.489Z,13.70
2024-04-07T17:58:56.086Z,10.80
2024-04-07T18:01:24.679Z,9.00
2024-04-07T18:03:53.657Z,9.90
2024-04-07T18:06:25.952Z,53.40
2024-04-07T18:08:54.416Z,55.70
2024-04-07T18:11:23.617Z,51.70
2024-04-07T18:13:53.970Z,27.60
2024-04-07T18:16:24.510Z,13.90
2024-04-07T18:18:54.619Z,12.30
2024-04-07T18:21:22.853Z,18.70
2024-04-07T18:23:51.141Z,19.80
2024-04-07T18:26:19.624Z,19.60
2024-04-07T18:28:48.409Z,18.10
2024-04-07T18:31:16.992Z,38.00
2024-04-07T18:33:45.162Z,19.20
2024-04-07T18:36:13.442Z,12.60
2024-04-07T18:38:42.131Z,11.50
2024-04-07T18:41:10.300Z,13.90
2024-04-07T18:43:38.797Z,16.70
2024-04-07T18:46:07.459Z,13.60
2024-04-07T18:48:35.863Z,15.20
2024-04-07T18:51:04.447Z,8.60
2024-04-07T18:53:32.607Z,6.60
2024-04-07T18:56:00.876Z,7.30
2024-04-07T18:58:29.155Z,7.40
2024-04-07T19:00:57.329Z,7.20
2024-04-07T19:03:27.760Z,7.70
2024-04-07T19:05:56.856Z,40.40
2024-04-07T19:08:25.786Z,18.60
2024-04-07T19:11:09.793Z,11.60
2024-04-07T19:13:41.118Z,32.70
2024-04-07T19:16:11.294Z,22.40
2024-04-07T19:18:41.073Z,13.30
2024-04-07T19:23:39.682Z,15.50
2024-04-07T19:26:07.846Z,16.80
2024-04-07T19:28:38.948Z,21.20
2024-04-07T19:31:13.709Z,38.00
2024-04-07T19:33:42.202Z,42.60
2024-04-07T19:36:11.589Z,25.10
2024-04-07T19:38:40.184Z,29.80
2024-04-07T19:41:09.991Z,33.70
2024-04-07T19:43:38.372Z,35.40
2024-04-07T19:46:06.750Z,31.20
2024-04-07T19:48:35.064Z,28.50
2024-04-07T19:51:03.569Z,23.10
2024-04-07T19:53:31.801Z,25.50
2024-04-07T19:56:00.265Z,37.40
2024-04-07T19:58:28.948Z,23.20
2024-04-07T20:00:57.327Z,18.60
2024-04-07T20:03:27.412Z,12.80
2024-04-07T20:05:57.457Z,9.60
2024-04-07T20:08:26.448Z,12.80
2024-04-07T20:10:57.207Z,10.80
2024-04-07T20:13:26.291Z,14.90
2024-04-07T20:15:55.184Z,13.20
2024-04-07T20:18:23.462Z,11.10
2024-04-07T20:20:52.138Z,10.90
2024-04-07T20:23:20.357Z,9.70
2024-04-07T20:25:49.105Z,8.70
2024-04-07T20:28:17.174Z,8.40
2024-04-07T20:30:46.273Z,8.70
2024-04-07T20:33:14.538Z,12.00
2024-04-07T20:35:42.652Z,18.30
2024-04-07T20:38:12.142Z,16.30
2024-04-07T20:40:41.225Z,11.40
2024-04-07T20:43:12.862Z,9.10
2024-04-07T20:45:41.053Z,11.40
2024-04-07T20:48:09.911Z,7.30
2024-04-07T20:50:38.832Z,6.90
2024-04-07T20:53:08.131Z,9.30
2024-04-07T20:55:37.115Z,9.10
2024-04-07T20:58:05.419Z,9.10
2024-04-07T21:00:40.676Z,9.90
2024-04-07T21:03:10.769Z,9.60
2024-04-07T21:05:39.138Z,9.00
2024-04-07T21:08:08.376Z,9.90
2024-04-07T21:10:36.709Z,10.90
2024-04-07T21:13:05.298Z,10.50
2024-04-07T21:15:33.582Z,9.50
2024-04-07T21:18:02.160Z,9.10
2024-04-07T21:20:32.620Z,10.10
2024-04-07T21:23:00.861Z,9.90
2024-04-07T21:25:29.519Z,9.20
2024-04-07T21:27:59.361Z,10.30
2024-04-07T21:30:29.690Z,11.10
2024-04-07T21:32:57.992Z,12.80
2024-04-07T21:35:26.294Z,16.30
2024-04-07T21:37:54.722Z,15.30
2024-04-07T21:40:22.897Z,18.70
2024-04-07T21:42:51.479Z,14.20
2024-04-07T21:45:19.854Z,10.80
2024-04-07T21:47:48.159Z,10.30
2024-04-07T21:50:16.737Z,9.60
2024-04-07T21:52:44.992Z,10.00
2024-04-07T21:55:13.391Z,8.50
2024-04-07T21:57:41.546Z,8.30
2024-04-07T22:00:15.890Z,6.40
2024-04-07T22:02:44.027Z,5.80
2024-04-07T22:05:12.426Z,5.10
2024-04-07T22:07:41.015Z,5.20
2024-04-07T22:10:09.588Z,4.10
2024-04-07T22:12:37.864Z,4.80
2024-04-07T22:15:06.641Z,3.60
2024-04-07T22:17:35.667Z,4.30
2024-04-07T22:20:06.580Z,4.50
2024-04-07T22:22:37.830Z,4.90
2024-04-07T22:25:07.743Z,3.80
2024-04-07T22:27:36.570Z,4.20
2024-04-07T22:30:05.499Z,6.00
2024-04-07T22:32:33.857Z,4.90
2024-04-07T22:35:02.279Z,5.30
2024-04-07T22:37:31.793Z,5.30
2024-04-07T22:39:59.960Z,4.40
2024-04-07T22:42:28.544Z,5.20
2024-04-07T22:44:57.033Z,5.70
2024-04-07T22:47:25.271Z,6.00
2024-04-07T22:49:54.095Z,7.30
2024-04-07T22:52:24.071Z,6.50
2024-04-07T22:54:54.568Z,6.30
2024-04-07T22:57:24.657Z,7.30
2024-04-07T22:59:55.908Z,8.50
2024-04-07T23:02:24.726Z,9.00
2024-04-07T23:04:53.268Z,10.60
2024-04-07T23:07:21.450Z,10.40
2024-04-07T23:09:49.836Z,10.80
2024-04-07T23:12:19.743Z,11.50
2024-04-07T23:14:52.016Z,12.20
2024-04-07T23:17:20.187Z,13.50
2024-04-07T23:19:54.691Z,9.70
2024-04-07T23:22:23.096Z,10.50
2024-04-07T23:24:52.422Z,11.80
2024-04-07T23:27:21.181Z,11.40
2024-04-07T23:29:49.343Z,11.10
2024-04-07T23:32:17.521Z,11.80
2024-04-07T23:34:54.429Z,10.30
2024-04-07T23:37:22.522Z,10.50
2024-04-07T23:39:52.492Z,9.70
2024-04-07T23:42:20.964Z,8.20
2024-04-07T23:44:49.543Z,8.90
2024-04-07T23:47:18.464Z,6.80
2024-04-07T23:49:46.817Z,6.60
2024-04-07T23:52:15.512Z,7.80
2024-04-07T23:54:44.088Z,7.10
2024-04-07T23:57:14.011Z,9.00
2024-04-07T23:59:42.504Z,7.40
